Time;durP1;ratioP1;P1;durP2;ratioP2;P2;SDS_P1;SDS_P2;PMS_P1;PMS_P2;Temp;Humidity;BMP_temperature;BMP_pressure;BME280_temperature;BME280_humidity;BME280_pressure;Samples;Min_cycle;Max_cycle;Signal;HPM_P1;HPM_P2
2022/09/17 00:00:37;;;;;;;4.07;0.70;;;24.70;1.00;;;;;;5037070;28;20029;-63
2022/09/17 00:03:02;;;;;;;3.97;1.10;;;24.50;1.00;;;;;;5037877;28;20120;-63
2022/09/17 00:05:28;;;;;;;1.50;0.85;;;24.40;1.00;;;;;;5033082;28;20120;-63
2022/09/17 00:07:54;;;;;;;0.95;0.80;;;24.40;1.00;;;;;;5032065;28;20021;-62
2022/09/17 00:10:22;;;;;;;2.55;1.02;;;24.40;1.00;;;;;;5032763;28;20163;-63
2022/09/17 00:12:48;;;;;;;1.17;1.05;;;24.40;1.00;;;;;;5036532;28;20374;-63
2022/09/17 00:15:14;;;;;;;3.83;1.60;;;24.50;1.00;;;;;;5034630;28;20045;-63
2022/09/17 00:17:41;;;;;;;1.25;0.70;;;24.60;1.00;;;;;;5031835;28;20505;-63
2022/09/17 00:20:12;;;;;;;2.00;1.00;;;24.70;1.00;;;;;;5032576;28;20026;-62
2022/09/17 00:22:38;;;;;;;1.95;0.90;;;24.80;1.00;;;;;;5034547;28;20036;-62
2022/09/17 00:25:05;;;;;;;1.85;0.80;;;24.70;1.00;;;;;;5036649;28;20149;-63
2022/09/17 00:27:31;;;;;;;1.75;0.70;;;24.80;1.00;;;;;;5032050;28;20487;-63
2022/09/17 00:29:57;;;;;;;1.20;1.10;;;24.80;1.00;;;;;;5034485;28;20040;-63
2022/09/17 00:32:23;;;;;;;1.65;1.30;;;24.70;1.00;;;;;;5028906;28;20062;-63
2022/09/17 00:34:51;;;;;;;0.80;0.80;;;24.80;1.00;;;;;;5043181;28;20029;-63
2022/09/17 00:37:20;;;;;;;3.40;1.20;;;24.90;1.00;;;;;;5031542;28;20045;-62
2022/09/17 00:39:45;;;;;;;3.47;1.00;;;24.90;1.00;;;;;;5037580;28;20087;-63
2022/09/17 00:42:12;;;;;;;1.27;1.17;;;24.80;1.00;;;;;;5032276;28;20459;-62
2022/09/17 00:44:55;;;;;;;2.38;1.08;;;24.80;1.00;;;;;;5026279;28;20121;-63
2022/09/17 00:47:53;;;;;;;1.70;1.23;;;24.80;1.00;;;;;;5016732;28;20026;-62
2022/09/17 00:50:28;;;;;;;2.28;1.38;;;24.80;1.00;;;;;;5026428;28;20041;-62
2022/09/17 00:53:15;;;;;;;2.08;0.93;;;24.80;1.00;;;;;;5031451;28;20029;-62
2022/09/17 00:56:05;;;;;;;6.80;1.83;;;24.80;1.00;;;;;;5028460;28;20125;-63
2022/09/17 00:58:32;;;;;;;5.75;3.20;;;24.80;1.00;;;;;;5030515;28;20029;-63
2022/09/17 01:00:58;;;;;;;6.70;3.80;;;24.80;1.00;;;;;;5031983;28;20025;-63
2022/09/17 01:03:24;;;;;;;6.43;4.30;;;24.70;1.00;;;;;;5032530;28;20039;-62
2022/09/17 01:06:11;;;;;;;9.00;5.38;;;24.80;1.00;;;;;;5038812;28;20018;-63
2022/09/17 01:09:10;;;;;;;7.55;4.20;;;24.70;1.00;;;;;;5024969;28;20025;-62
2022/09/17 01:11:38;;;;;;;8.65;4.28;;;24.60;1.00;;;;;;5032059;28;20059;-63
2022/09/17 01:14:19;;;;;;;9.23;5.55;;;24.60;1.00;;;;;;5030901;28;20038;-62
2022/09/17 01:17:27;;;;;;;7.22;5.60;;;24.60;1.00;;;;;;5037819;28;20033;-63
2022/09/17 01:20:04;;;;;;;8.93;7.07;;;24.60;1.00;;;;;;5032622;28;20046;-63
2022/09/17 01:23:11;;;;;;;14.10;7.50;;;24.60;1.00;;;;;;5029100;28;20056;-63
2022/09/17 01:26:10;;;;;;;11.60;7.75;;;24.60;1.00;;;;;;5017865;28;20131;-63
2022/09/17 01:28:47;;;;;;;12.15;7.00;;;24.50;1.00;;;;;;5030570;28;20085;-63
2022/09/17 01:31:29;;;;;;;10.77;7.15;;;24.40;1.00;;;;;;5031093;28;20042;-62
2022/09/17 01:34:07;;;;;;;8.95;6.30;;;24.30;1.00;;;;;;5036930;28;20079;-64
2022/09/17 01:36:57;;;;;;;7.65;6.38;;;24.30;1.00;;;;;;5032074;28;20045;-63
2022/09/17 01:39:42;;;;;;;7.40;6.50;;;24.30;1.00;;;;;;5027273;28;20017;-63
2022/09/17 01:42:16;;;;;;;7.43;5.40;;;24.10;1.00;;;;;;5037400;28;20500;-64
2022/09/17 01:44:48;;;;;;;8.18;5.97;;;24.20;1.00;;;;;;5034673;28;20391;-63
2022/09/17 01:47:32;;;;;;;10.10;6.22;;;24.10;1.00;;;;;;5031356;28;20033;-63
2022/09/17 01:50:06;;;;;;;10.00;5.80;;;24.00;1.00;;;;;;5034118;28;20037;-63
2022/09/17 01:52:36;;;;;;;9.95;6.40;;;23.90;1.00;;;;;;5036275;28;20030;-63
2022/09/17 01:55:07;;;;;;;7.88;5.68;;;24.00;1.00;;;;;;5035748;28;20351;-63
2022/09/17 01:57:43;;;;;;;10.38;6.35;;;23.90;1.00;;;;;;5037732;28;20025;-64
2022/09/17 02:00:12;;;;;;;11.52;5.45;;;23.80;1.00;;;;;;5034955;28;20116;-63
2022/09/17 02:03:13;;;;;;;10.48;5.65;;;23.70;1.00;;;;;;5032110;28;20032;-63
2022/09/17 02:05:40;;;;;;;14.30;5.00;;;23.60;1.00;;;;;;5011883;28;20133;-63
2022/09/17 02:08:20;;;;;;;8.20;4.47;;;23.50;1.00;;;;;;5030680;28;20033;-62
2022/09/17 02:11:03;;;;;;;6.97;4.15;;;23.40;1.00;;;;;;5037058;28;20107;-62
2022/09/17 02:13:39;;;;;;;10.10;4.72;;;23.20;1.00;;;;;;5022225;28;20079;-62
2022/09/17 02:16:12;;;;;;;8.82;4.32;;;23.20;1.00;;;;;;5039951;28;20033;-62
2022/09/17 02:18:54;;;;;;;5.18;3.75;;;23.20;1.00;;;;;;5033836;28;20037;-62
2022/09/17 02:21:30;;;;;;;6.68;3.58;;;23.10;1.00;;;;;;5034355;28;20037;-62
2022/09/17 02:24:14;;;;;;;6.15;3.15;;;23.10;1.00;;;;;;5034922;28;20040;-62
2022/09/17 02:26:47;;;;;;;6.32;2.60;;;22.90;1.00;;;;;;5041043;28;20018;-61
2022/09/17 02:29:35;;;;;;;3.35;2.60;;;23.00;1.00;;;;;;5035543;28;20529;-61
2022/09/17 02:32:02;;;;;;;5.90;2.40;;;22.90;1.00;;;;;;5036039;28;20481;-62
2022/09/17 02:34:28;;;;;;;5.03;2.60;;;22.80;1.00;;;;;;5033752;28;20061;-61
2022/09/17 02:36:55;;;;;;;5.53;2.22;;;22.70;1.00;;;;;;5040405;28;20029;-61
2022/09/17 02:39:21;;;;;;;2.42;2.22;;;22.40;1.00;;;;;;5034656;28;20100;-61
2022/09/17 02:42:16;;;;;;;2.50;2.08;;;22.60;1.00;;;;;;5033644;28;20180;-62
2022/09/17 02:45:09;;;;;;;3.25;2.22;;;22.60;1.00;;;;;;5034467;28;20441;-62
2022/09/17 02:48:00;;;;;;;4.32;2.35;;;22.60;1.00;;;;;;5031691;28;20480;-62
2022/09/17 02:50:44;;;;;;;2.50;2.20;;;22.70;1.00;;;;;;5034411;28;20037;-62
2022/09/17 02:53:47;;;;;;;4.20;2.70;;;22.70;1.00;;;;;;5026344;28;20120;-62
2022/09/17 02:56:35;;;;;;;2.90;2.08;;;22.80;1.00;;;;;;5022637;28;20494;-62
2022/09/17 02:59:41;;;;;;;3.67;1.90;;;22.40;1.00;;;;;;5033224;28;20476;-62
2022/09/17 03:02:18;;;;;;;3.53;1.98;;;22.60;1.00;;;;;;5044561;28;20048;-62
2022/09/17 03:04:45;;;;;;;1.90;1.65;;;22.60;1.00;;;;;;5021370;28;20040;-62
2022/09/17 03:07:12;;;;;;;1.90;1.80;;;22.40;1.00;;;;;;5033210;28;20112;-62
2022/09/17 03:09:40;;;;;;;2.25;2.00;;;22.40;1.00;;;;;;5034034;28;20033;-61
2022/09/17 03:12:06;;;;;;;3.45;2.13;;;22.10;1.00;;;;;;5041216;28;20388;-62
2022/09/17 03:14:32;;;;;;;1.23;1.23;;;22.30;1.00;;;;;;5034031;28;20124;-63
2022/09/17 03:16:57;;;;;;;2.60;1.75;;;22.20;1.00;;;;;;5042468;28;20382;-63
2022/09/17 03:19:23;;;;;;;2.05;1.85;;;22.10;1.00;;;;;;5035342;28;20036;-63
2022/09/17 03:21:48;;;;;;;2.67;1.80;;;22.00;1.00;;;;;;5042536;28;20037;-63
2022/09/17 03:24:14;;;;;;;3.40;1.80;;;22.20;1.00;;;;;;5036386;28;20045;-63
2022/09/17 03:26:48;;;;;;;2.38;1.67;;;21.90;1.00;;;;;;5039777;28;20488;-63
2022/09/17 03:29:13;;;;;;;2.85;2.08;;;22.20;1.00;;;;;;5038058;28;20025;-63
2022/09/17 03:31:39;;;;;;;2.70;2.00;;;22.40;1.00;;;;;;5032334;28;20036;-63
2022/09/17 03:34:06;;;;;;;1.67;1.50;;;22.10;1.00;;;;;;5024567;28;20157;-63
2022/09/17 03:36:32;;;;;;;1.60;1.50;;;22.30;1.00;;;;;;5032324;28;20017;-63
2022/09/17 03:38:58;;;;;;;2.05;1.65;;;22.40;1.00;;;;;;5033453;28;20022;-63
2022/09/17 03:41:24;;;;;;;3.72;2.35;;;22.40;1.00;;;;;;5034259;28;20067;-63
2022/09/17 03:43:51;;;;;;;2.30;2.08;;;22.40;1.00;;;;;;5032360;28;20041;-63
2022/09/17 03:46:17;;;;;;;2.85;2.65;;;22.40;1.00;;;;;;5027972;28;20506;-63
2022/09/17 03:48:43;;;;;;;2.20;2.00;;;22.30;1.00;;;;;;5025619;28;20029;-63
2022/09/17 03:51:09;;;;;;;1.98;1.77;;;22.40;1.00;;;;;;5041541;28;20099;-63
2022/09/17 03:53:35;;;;;;;1.85;1.50;;;22.20;1.00;;;;;;5019471;28;20379;-63
2022/09/17 03:56:02;;;;;;;2.10;1.23;;;22.20;1.00;;;;;;5031594;28;20387;-62
2022/09/17 03:58:29;;;;;;;1.33;0.93;;;22.10;1.00;;;;;;5030946;28;20025;-63
2022/09/17 04:00:56;;;;;;;3.28;0.90;;;22.10;1.00;;;;;;5033212;28;20069;-63
2022/09/17 04:03:23;;;;;;;0.68;0.68;;;22.00;1.00;;;;;;5034073;28;20018;-63
2022/09/17 04:05:49;;;;;;;0.52;0.45;;;22.10;1.00;;;;;;5038981;28;20108;-63
2022/09/17 04:08:14;;;;;;;1.77;0.68;;;21.80;1.00;;;;;;5032046;28;20187;-63
2022/09/17 04:10:40;;;;;;;0.88;0.50;;;21.80;1.00;;;;;;5033280;28;20021;-63
2022/09/17 04:13:05;;;;;;;1.75;0.77;;;21.70;1.00;;;;;;5031622;28;20379;-63
2022/09/17 04:15:31;;;;;;;0.85;0.70;;;21.70;1.00;;;;;;5038677;28;20510;-63
2022/09/17 04:17:57;;;;;;;1.63;0.70;;;21.60;1.00;;;;;;5045249;28;20104;-63
2022/09/17 04:20:24;;;;;;;3.97;0.80;;;21.80;1.00;;;;;;5032895;28;20113;-63
2022/09/17 04:22:50;;;;;;;1.75;0.75;;;21.90;1.00;;;;;;5031920;28;20031;-63
2022/09/17 04:25:15;;;;;;;0.90;0.90;;;21.80;1.00;;;;;;5032538;28;20034;-63
2022/09/17 04:27:42;;;;;;;2.20;0.88;;;21.80;1.00;;;;;;5032264;28;20105;-63
2022/09/17 04:30:08;;;;;;;0.77;0.77;;;21.80;1.00;;;;;;5030910;28;20033;-62
2022/09/17 04:32:33;;;;;;;1.45;0.75;;;21.70;1.00;;;;;;5030976;28;20029;-62
2022/09/17 04:34:59;;;;;;;2.22;0.95;;;21.80;1.00;;;;;;5030951;28;20026;-63
2022/09/17 04:37:24;;;;;;;1.42;0.98;;;21.90;1.00;;;;;;5031858;28;20368;-63
2022/09/17 04:39:51;;;;;;;0.65;0.65;;;21.80;1.00;;;;;;5031664;28;20029;-63
2022/09/17 04:42:16;;;;;;;1.63;0.60;;;21.70;1.00;;;;;;5038762;28;20020;-63
2022/09/17 04:44:42;;;;;;;3.05;0.57;;;21.40;1.00;;;;;;5032372;28;20049;-63
2022/09/17 04:47:08;;;;;;;3.10;0.70;;;21.50;1.00;;;;;;5033705;28;20018;-63
2022/09/17 04:49:33;;;;;;;1.30;0.60;;;21.50;1.00;;;;;;5032320;28;20363;-62
2022/09/17 04:51:59;;;;;;;1.70;0.60;;;21.40;1.00;;;;;;5031624;28;20455;-62
2022/09/17 04:54:25;;;;;;;0.43;0.35;;;21.10;1.00;;;;;;5031010;28;20026;-63
2022/09/17 04:56:50;;;;;;;1.48;0.40;;;21.50;1.00;;;;;;5034228;28;20028;-63
2022/09/17 04:59:16;;;;;;;1.48;0.40;;;21.60;1.00;;;;;;5032624;28;20106;-63
2022/09/17 05:01:42;;;;;;;3.75;0.50;;;21.50;1.00;;;;;;5032126;28;20037;-63
2022/09/17 05:04:08;;;;;;;1.70;0.50;;;21.40;1.00;;;;;;5034031;28;20041;-62
2022/09/17 05:06:34;;;;;;;2.40;0.50;;;21.30;1.00;;;;;;5041617;28;20021;-63
2022/09/17 05:09:00;;;;;;;1.58;0.50;;;21.30;1.00;;;;;;5033423;28;20386;-63
2022/09/17 05:11:27;;;;;;;0.63;0.52;;;21.10;1.00;;;;;;5032076;28;20356;-63
2022/09/17 05:13:53;;;;;;;0.35;0.35;;;21.20;1.00;;;;;;5034556;28;20128;-63
2022/09/17 05:16:19;;;;;;;1.15;0.50;;;21.20;1.00;;;;;;5034335;28;20104;-63
2022/09/17 05:18:44;;;;;;;2.60;0.45;;;21.40;1.00;;;;;;5032953;28;20135;-62
2022/09/17 05:21:10;;;;;;;0.38;0.20;;;21.20;1.00;;;;;;5020130;28;20025;-62
2022/09/17 05:23:36;;;;;;;0.10;0.10;;;21.10;1.00;;;;;;5031040;28;20108;-62
2022/09/17 05:26:01;;;;;;;0.30;0.30;;;21.20;1.00;;;;;;5034366;28;20025;-62
2022/09/17 05:28:28;;;;;;;1.65;0.40;;;21.10;1.00;;;;;;5035673;28;20366;-62
2022/09/17 05:30:53;;;;;;;0.90;0.40;;;21.10;1.00;;;;;;5042050;28;20032;-62
2022/09/17 05:33:19;;;;;;;0.65;0.30;;;21.00;1.00;;;;;;5035703;28;20104;-62
2022/09/17 05:35:45;;;;;;;0.93;0.30;;;21.10;1.00;;;;;;5033560;28;20021;-62
2022/09/17 05:38:11;;;;;;;1.30;0.55;;;21.00;1.00;;;;;;5035625;28;20029;-62
2022/09/17 05:40:37;;;;;;;2.83;0.50;;;21.10;1.00;;;;;;5035157;28;20026;-62
2022/09/17 05:43:05;;;;;;;0.40;0.40;;;21.10;1.00;;;;;;5028609;28;20399;-62
2022/09/17 05:45:32;;;;;;;0.43;0.38;;;21.30;1.00;;;;;;5042636;28;20038;-62
2022/09/17 05:48:00;;;;;;;1.38;0.40;;;21.30;1.00;;;;;;5035752;28;20029;-62
2022/09/17 05:50:27;;;;;;;2.60;0.50;;;21.30;1.00;;;;;;5043311;28;20043;-62
2022/09/17 05:52:53;;;;;;;4.50;0.60;;;21.30;1.00;;;;;;5035692;28;20523;-61
2022/09/17 05:55:21;;;;;;;1.88;0.38;;;21.30;1.00;;;;;;5041043;28;20065;-62
2022/09/17 05:57:47;;;;;;;1.50;0.28;;;21.30;1.00;;;;;;5032857;28;20021;-61
2022/09/17 06:00:13;;;;;;;1.40;0.60;;;21.10;1.00;;;;;;5034440;28;20040;-62
2022/09/17 06:02:39;;;;;;;0.70;0.70;;;21.20;1.00;;;;;;5035342;28;20033;-62
2022/09/17 06:05:05;;;;;;;0.45;0.25;;;21.30;1.00;;;;;;5034199;28;20057;-62
2022/09/17 06:07:30;;;;;;;0.55;0.22;;;21.20;1.00;;;;;;5035163;28;20025;-61
2022/09/17 06:09:56;;;;;;;0.85;0.20;;;21.20;1.00;;;;;;5044229;28;20037;-62
2022/09/17 06:12:22;;;;;;;0.55;0.45;;;21.20;1.00;;;;;;5036607;28;20026;-61
2022/09/17 06:14:48;;;;;;;0.60;0.60;;;20.90;1.00;;;;;;5042916;28;20049;-62
2022/09/17 06:17:13;;;;;;;2.42;0.70;;;21.10;1.00;;;;;;5038236;28;20079;-62
2022/09/17 06:19:39;;;;;;;0.85;0.65;;;20.90;1.00;;;;;;5039694;28;20141;-62
2022/09/17 06:22:04;;;;;;;2.10;0.93;;;20.90;1.00;;;;;;5033537;28;20391;-62
2022/09/17 06:24:31;;;;;;;0.47;0.47;;;20.90;1.00;;;;;;5033240;28;20049;-61
2022/09/17 06:26:57;;;;;;;0.50;0.50;;;20.90;1.00;;;;;;5033544;28;20026;-62
2022/09/17 06:29:23;;;;;;;1.80;0.63;;;21.00;1.00;;;;;;5034124;28;20026;-61
2022/09/17 06:31:49;;;;;;;1.60;0.80;;;21.00;1.00;;;;;;5034845;28;20033;-62
2022/09/17 06:34:15;;;;;;;1.52;0.75;;;20.90;1.00;;;;;;5034500;28;20030;-61
2022/09/17 06:36:41;;;;;;;1.92;0.60;;;20.70;1.00;;;;;;5033951;28;20044;-61
2022/09/17 06:39:07;;;;;;;0.40;0.40;;;20.70;1.00;;;;;;5034524;28;20479;-62
2022/09/17 06:41:32;;;;;;;1.95;0.40;;;20.60;1.00;;;;;;5043935;28;20452;-62
2022/09/17 06:43:58;;;;;;;1.98;0.68;;;20.60;1.00;;;;;;5034394;28;20087;-62
2022/09/17 06:46:24;;;;;;;0.63;0.50;;;20.80;1.00;;;;;;5033638;28;20025;-62
2022/09/17 06:48:49;;;;;;;0.75;0.75;;;20.70;1.00;;;;;;5033990;28;20064;-61
2022/09/17 06:51:15;;;;;;;2.50;1.05;;;20.80;1.00;;;;;;5033616;28;20044;-62
2022/09/17 06:53:41;;;;;;;1.05;0.70;;;20.80;1.00;;;;;;5033005;28;20116;-61
2022/09/17 06:56:07;;;;;;;1.00;0.55;;;20.70;1.00;;;;;;5035632;28;20083;-62
2022/09/17 06:58:40;;;;;;;1.50;0.60;;;20.80;1.00;;;;;;5034121;28;20479;-61
2022/09/17 07:01:06;;;;;;;1.92;0.98;;;20.70;1.00;;;;;;5033450;28;20028;-62
2022/09/17 07:03:32;;;;;;;0.65;0.50;;;20.80;1.00;;;;;;5033975;28;20064;-61
2022/09/17 07:05:58;;;;;;;1.45;0.38;;;20.90;1.00;;;;;;5036680;28;20029;-61
2022/09/17 07:08:24;;;;;;;3.00;0.38;;;21.00;1.00;;;;;;5034129;28;20029;-62
2022/09/17 07:10:53;;;;;;;4.38;0.65;;;20.90;1.00;;;;;;5024844;28;20026;-62
2022/09/17 07:13:19;;;;;;;3.00;0.65;;;20.90;1.00;;;;;;5033530;28;20026;-62
2022/09/17 07:15:52;;;;;;;2.20;0.30;;;20.90;1.00;;;;;;5035285;28;20118;-62
2022/09/17 07:18:17;;;;;;;6.68;0.90;;;21.00;1.00;;;;;;5033159;28;20033;-62
2022/09/17 07:20:43;;;;;;;3.33;0.28;;;21.00;1.00;;;;;;5032457;28;20017;-62
2022/09/17 07:23:08;;;;;;;4.43;0.50;;;21.10;1.00;;;;;;5033688;28;20365;-62
2022/09/17 07:25:34;;;;;;;7.43;0.93;;;21.10;1.00;;;;;;5051936;28;20080;-62
2022/09/17 07:28:02;;;;;;;7.22;0.40;;;21.20;1.00;;;;;;5033623;28;20013;-62
2022/09/17 07:30:27;;;;;;;7.82;0.77;;;21.30;1.00;;;;;;5032733;28;20060;-62
2022/09/17 07:32:53;;;;;;;8.48;0.80;;;21.60;1.00;;;;;;5033452;28;20053;-62
2022/09/17 07:35:18;;;;;;;8.00;0.77;;;21.50;1.00;;;;;;5035387;28;20044;-62
2022/09/17 07:37:44;;;;;;;5.40;0.70;;;21.40;1.00;;;;;;5032435;28;20101;-62
2022/09/17 07:40:09;;;;;;;3.28;0.55;;;21.50;1.00;;;;;;5038199;28;20072;-62
2022/09/17 07:42:35;;;;;;;6.63;0.70;;;21.40;1.00;;;;;;5033342;28;20053;-62
2022/09/17 07:45:01;;;;;;;7.45;0.40;;;21.50;1.00;;;;;;5032098;28;20037;-62
2022/09/17 07:47:26;;;;;;;6.18;0.40;;;21.30;1.00;;;;;;5032564;28;20437;-62
2022/09/17 07:49:52;;;;;;;4.65;0.30;;;21.30;1.00;;;;;;5032299;28;20052;-62
2022/09/17 07:52:18;;;;;;;8.27;0.70;;;21.30;1.00;;;;;;5033215;28;20101;-62
2022/09/17 07:54:43;;;;;;;3.42;0.40;;;21.30;1.00;;;;;;5032213;28;20468;-62
2022/09/17 07:57:09;;;;;;;4.13;0.45;;;21.20;1.00;;;;;;5016467;28;20021;-62
2022/09/17 07:59:34;;;;;;;6.90;0.30;;;21.20;1.00;;;;;;5037821;28;20029;-62
2022/09/17 08:02:00;;;;;;;4.32;0.60;;;21.30;1.00;;;;;;5033004;28;20017;-62
2022/09/17 08:04:26;;;;;;;10.50;0.60;;;21.30;1.00;;;;;;5038575;28;20113;-54
2022/09/17 08:06:51;;;;;;;4.95;0.57;;;21.30;1.00;;;;;;5029460;28;20375;-57
2022/09/17 08:09:17;;;;;;;1.65;0.30;;;21.50;1.00;;;;;;5030334;28;20376;-59
2022/09/17 08:11:44;;;;;;;3.25;0.52;;;21.60;1.00;;;;;;5031860;28;20025;-60
2022/09/17 08:14:11;;;;;;;1.70;0.25;;;21.60;1.00;;;;;;5030988;28;20064;-60
2022/09/17 08:16:37;;;;;;;3.35;0.40;;;21.70;1.00;;;;;;5028789;28;20021;-59
2022/09/17 08:19:03;;;;;;;2.80;0.28;;;21.90;1.00;;;;;;5031632;28;20040;-58
2022/09/17 08:21:28;;;;;;;4.63;0.80;;;21.90;1.00;;;;;;5031247;28;20025;-58
2022/09/17 08:23:54;;;;;;;1.85;0.20;;;21.90;1.00;;;;;;5031732;28;20025;-58
2022/09/17 08:26:21;;;;;;;0.30;0.30;;;21.90;1.00;;;;;;5032522;28;20032;-59
2022/09/17 08:28:49;;;;;;;6.70;0.70;;;21.90;1.00;;;;;;5027665;28;20029;-58
2022/09/17 08:31:18;;;;;;;6.15;0.60;;;21.90;1.00;;;;;;5034567;28;20025;-58
2022/09/17 08:33:44;;;;;;;2.33;0.40;;;21.90;1.00;;;;;;5018248;28;20013;-57
2022/09/17 08:36:12;;;;;;;8.90;0.70;;;21.90;1.00;;;;;;5032262;28;20041;-58
2022/09/17 08:38:38;;;;;;;2.88;0.45;;;22.00;1.00;;;;;;5031523;28;20018;-58
2022/09/17 08:41:10;;;;;;;4.47;0.40;;;22.00;1.00;;;;;;5042006;28;20148;-52
2022/09/17 08:44:03;;;;;;;4.38;0.70;;;22.00;1.00;;;;;;5031157;28;20029;-52
2022/09/17 08:46:45;;;;;;;1.65;0.35;;;21.90;1.00;;;;;;5036489;28;20120;-57
2022/09/17 08:49:16;;;;;;;2.03;0.73;;;22.00;1.00;;;;;;5043723;28;20090;-56
2022/09/17 08:51:52;;;;;;;10.27;1.00;;;21.60;1.00;;;;;;5032196;28;20017;-58
2022/09/17 08:54:39;;;;;;;3.58;1.00;;;21.60;1.00;;;;;;5023413;28;20116;-56
2022/09/17 08:57:11;;;;;;;4.40;1.65;;;21.70;1.00;;;;;;5028052;28;20029;-55
2022/09/17 09:00:01;;;;;;;1.90;0.75;;;21.70;1.00;;;;;;5031100;28;20030;-56
2022/09/17 09:02:54;;;;;;;2.95;0.93;;;21.60;1.00;;;;;;5031331;28;20037;-56
2022/09/17 09:05:25;;;;;;;2.95;0.82;;;21.40;1.00;;;;;;5044071;28;20120;-55
2022/09/17 09:08:02;;;;;;;2.63;1.17;;;21.50;1.00;;;;;;5019033;28;20071;-54
2022/09/17 09:10:36;;;;;;;1.90;1.30;;;21.50;1.00;;;;;;5030354;28;20391;-55
2022/09/17 09:13:03;;;;;;;1.52;1.20;;;21.20;1.00;;;;;;5031890;28;20072;-56
2022/09/17 09:15:47;;;;;;;3.75;1.30;;;21.40;1.00;;;;;;5040567;28;20060;-53
2022/09/17 09:18:21;;;;;;;4.10;1.10;;;21.30;1.00;;;;;;5022852;28;20117;-58
2022/09/17 09:21:11;;;;;;;3.85;1.33;;;21.30;1.00;;;;;;5034502;28;20104;-54
2022/09/17 09:24:14;;;;;;;2.38;0.77;;;21.30;1.00;;;;;;5021374;28;20042;-55
2022/09/17 09:26:43;;;;;;;4.15;0.80;;;21.30;1.00;;;;;;5018447;28;20066;-56
2022/09/17 09:29:34;;;;;;;3.88;0.98;;;21.20;1.00;;;;;;5030890;28;20048;-56
2022/09/17 09:32:35;;;;;;;1.73;0.80;;;21.20;1.00;;;;;;5020571;28;20483;-55
2022/09/17 09:35:14;;;;;;;3.10;0.90;;;21.20;1.00;;;;;;5031100;28;20041;-57
2022/09/17 09:37:45;;;;;;;2.35;0.73;;;21.30;1.00;;;;;;5030197;28;20116;-55
2022/09/17 09:40:22;;;;;;;0.88;0.88;;;21.50;1.00;;;;;;5034877;28;20032;-53
2022/09/17 09:42:52;;;;;;;1.45;1.35;;;21.60;1.00;;;;;;5030798;28;20095;-54
2022/09/17 09:45:37;;;;;;;4.38;1.75;;;21.50;1.00;;;;;;5030224;28;20041;-54
2022/09/17 09:48:10;;;;;;;1.77;0.80;;;21.60;1.00;;;;;;5031476;28;20029;-57
2022/09/17 09:50:48;;;;;;;1.90;1.42;;;21.60;1.00;;;;;;5030695;28;20064;-53
2022/09/17 09:53:48;;;;;;;2.63;1.08;;;21.60;1.00;;;;;;5031496;28;20057;-55
2022/09/17 09:56:43;;;;;;;2.65;1.33;;;21.60;1.00;;;;;;5037140;28;20030;-55
2022/09/17 09:59:11;;;;;;;2.40;0.90;;;21.50;1.00;;;;;;5037073;28;20026;-56
2022/09/17 10:01:40;;;;;;;1.85;0.90;;;21.50;1.00;;;;;;5036951;28;20119;-54
2022/09/17 10:04:26;;;;;;;1.70;0.40;;;21.60;1.00;;;;;;5028930;28;20373;-54
2022/09/17 10:07:12;;;;;;;1.92;0.40;;;21.40;1.00;;;;;;5031233;28;20037;-50
2022/09/17 10:09:45;;;;;;;0.90;0.55;;;21.60;1.00;;;;;;5037005;28;20083;-50
2022/09/17 10:12:10;;;;;;;1.30;0.60;;;21.60;1.00;;;;;;5037723;28;20117;-50
2022/09/17 10:14:38;;;;;;;2.28;0.60;;;21.70;1.00;;;;;;5037752;28;20498;-59
2022/09/17 10:17:13;;;;;;;0.70;0.28;;;21.70;1.00;;;;;;5036683;28;20124;-63
2022/09/17 10:19:39;;;;;;;1.05;0.50;;;21.70;1.00;;;;;;5024674;28;20021;-55
2022/09/17 10:22:37;;;;;;;1.30;0.35;;;21.70;1.00;;;;;;5043687;28;20111;-62
2022/09/17 10:25:05;;;;;;;1.75;0.77;;;21.70;1.00;;;;;;5021187;28;20061;-62
2022/09/17 10:27:32;;;;;;;1.90;0.73;;;21.70;1.00;;;;;;5034490;28;20021;-63
2022/09/17 10:30:09;;;;;;;0.85;0.85;;;21.50;1.00;;;;;;5035395;28;20029;-62
2022/09/17 10:32:34;;;;;;;1.38;0.88;;;21.40;1.00;;;;;;5034448;28;20183;-62
2022/09/17 10:35:14;;;;;;;4.35;1.45;;;21.50;1.00;;;;;;5033375;28;20439;-62
2022/09/17 10:37:57;;;;;;;1.70;1.10;;;21.60;1.00;;;;;;5034444;28;20033;-62
2022/09/17 10:40:27;;;;;;;3.45;1.30;;;21.50;1.00;;;;;;5035672;28;20442;-63
2022/09/17 10:43:10;;;;;;;3.17;0.98;;;21.70;1.00;;;;;;5034201;28;20032;-62
2022/09/17 10:45:42;;;;;;;3.42;0.65;;;21.70;1.00;;;;;;5028400;28;20079;-62
2022/09/17 10:48:16;;;;;;;2.50;0.80;;;21.60;1.00;;;;;;5033932;28;20159;-62
2022/09/17 10:50:54;;;;;;;2.55;0.47;;;21.80;1.00;;;;;;5036872;28;20029;-62
2022/09/17 10:53:23;;;;;;;2.15;0.93;;;21.70;1.00;;;;;;5033845;28;20021;-62
2022/09/17 10:55:54;;;;;;;1.35;0.90;;;21.70;1.00;;;;;;5032987;28;20045;-62
2022/09/17 10:58:31;;;;;;;1.90;0.93;;;21.70;1.00;;;;;;5033908;28;20021;-63
2022/09/17 11:01:20;;;;;;;2.15;0.77;;;21.70;1.00;;;;;;5038564;28;20061;-62
2022/09/17 11:04:10;;;;;;;2.25;0.50;;;21.90;1.00;;;;;;5033702;28;20036;-62
2022/09/17 11:07:00;;;;;;;0.47;0.35;;;21.90;1.00;;;;;;5037897;28;20060;-62
2022/09/17 11:09:38;;;;;;;1.27;0.80;;;21.90;1.00;;;;;;5021429;28;20471;-62
2022/09/17 11:12:21;;;;;;;1.33;0.82;;;21.80;1.00;;;;;;5031357;28;20502;-62
2022/09/17 11:14:54;;;;;;;1.70;0.77;;;21.80;1.00;;;;;;5033917;28;20037;-62
2022/09/17 11:17:38;;;;;;;2.65;0.55;;;21.70;1.00;;;;;;5035689;28;20029;-62
2022/09/17 11:20:18;;;;;;;0.40;0.40;;;21.80;1.00;;;;;;5039130;28;20479;-62
2022/09/17 11:23:17;;;;;;;1.45;0.55;;;22.00;1.00;;;;;;5034746;28;20057;-62
2022/09/17 11:26:12;;;;;;;1.13;0.70;;;22.00;1.00;;;;;;5032595;28;20380;-62
2022/09/17 11:28:59;;;;;;;0.30;0.30;;;22.20;1.00;;;;;;5022107;28;20452;-62
2022/09/17 11:31:42;;;;;;;0.55;0.50;;;22.20;1.00;;;;;;5039937;28;20037;-62
2022/09/17 11:34:19;;;;;;;0.85;0.30;;;22.20;1.00;;;;;;5031604;28;20031;-62
2022/09/17 11:37:18;;;;;;;0.95;0.60;;;22.20;1.00;;;;;;5030398;28;20025;-62
2022/09/17 11:39:48;;;;;;;0.63;0.43;;;22.40;1.00;;;;;;5030594;28;20506;-62
2022/09/17 11:42:39;;;;;;;1.05;0.47;;;22.30;1.00;;;;;;5040965;28;20037;-62
2022/09/17 11:45:17;;;;;;;0.75;0.35;;;22.40;1.00;;;;;;5031383;28;20041;-62
2022/09/17 11:48:05;;;;;;;6.95;0.70;;;22.20;1.00;;;;;;5024860;28;20033;-62
2022/09/17 11:50:57;;;;;;;1.75;0.68;;;22.40;1.00;;;;;;5021712;28;20055;-62
2022/09/17 11:53:34;;;;;;;1.83;0.63;;;22.60;1.00;;;;;;5032380;28;20037;-62
2022/09/17 11:56:24;;;;;;;5.40;0.70;;;22.40;1.00;;;;;;5029484;28;20116;-62
2022/09/17 11:58:58;;;;;;;0.35;0.32;;;22.60;1.00;;;;;;5030584;28;20028;-62
2022/09/17 12:01:29;;;;;;;0.40;0.40;;;22.90;1.00;;;;;;5031729;28;20026;-62
2022/09/17 12:04:01;;;;;;;0.85;0.68;;;22.60;1.00;;;;;;5032317;28;20174;-62
2022/09/17 12:06:51;;;;;;;1.45;0.50;;;22.80;1.00;;;;;;5040829;28;20021;-62
2022/09/17 12:09:20;;;;;;;0.57;0.57;;;22.80;1.00;;;;;;5032859;28;20404;-62
2022/09/17 12:12:02;;;;;;;0.60;0.60;;;23.00;1.00;;;;;;5031608;28;20030;-62
2022/09/17 12:14:38;;;;;;;0.88;0.50;;;22.80;1.00;;;;;;5032350;28;20137;-62
2022/09/17 12:17:07;;;;;;;1.65;0.50;;;23.10;1.00;;;;;;5031246;28;20025;-62
2022/09/17 12:19:39;;;;;;;0.43;0.40;;;23.50;1.00;;;;;;5033187;28;20082;-62
2022/09/17 12:22:25;;;;;;;2.80;0.57;;;23.70;1.00;;;;;;5035071;28;20459;-63
2022/09/17 12:24:52;;;;;;;0.60;0.60;;;24.00;1.00;;;;;;5031278;28;20038;-62
2022/09/17 12:27:26;;;;;;;3.08;0.50;;;24.30;1.00;;;;;;5033901;28;20071;-62
2022/09/17 12:30:12;;;;;;;;;;;28.00;1.00;;;;;;5030992;28;20108;-63
2022/09/17 12:32:52;;;;;;;0.55;0.52;;;33.20;1.00;;;;;;5031933;28;19911;-63
2022/09/17 12:35:36;;;;;;;0.50;0.50;;;36.50;1.00;;;;;;5029792;28;20105;-63
2022/09/17 12:38:11;;;;;;;0.93;0.60;;;35.50;1.00;;;;;;5031040;28;20060;-63
2022/09/17 12:40:51;;;;;;;1.67;0.68;;;38.00;1.00;;;;;;5042690;28;20041;-63
2022/09/17 12:43:34;;;;;;;2.95;0.70;;;38.80;99.90;;;;;;5029711;28;20034;-63
2022/09/17 12:46:12;;;;;;;1.23;0.95;;;40.80;99.90;;;;;;5031955;28;20033;-63
2022/09/17 12:48:56;;;;;;;1.10;1.00;;;40.60;99.90;;;;;;5034153;28;20108;-63
2022/09/17 12:51:55;;;;;;;1.73;1.30;;;41.30;99.90;;;;;;5017782;28;20033;-63
2022/09/17 12:54:53;;;;;;;2.22;2.00;;;42.50;99.90;;;;;;5035422;28;20109;-63
2022/09/17 12:57:24;;;;;;;2.47;1.67;;;43.20;99.90;;;;;;5025006;28;20336;-63
2022/09/17 13:00:05;;;;;;;1.70;1.50;;;43.40;99.90;;;;;;5038808;28;20061;-62
2022/09/17 13:02:41;;;;;;;1.67;1.58;;;42.00;99.90;;;;;;5031778;28;20060;-62
2022/09/17 13:05:30;;;;;;;1.73;1.63;;;43.80;99.90;;;;;;5029208;28;20156;-62
2022/09/17 13:08:07;;;;;;;1.70;1.60;;;43.90;99.90;;;;;;5031732;28;20053;-63
2022/09/17 13:10:46;;;;;;;1.60;1.60;;;42.80;99.90;;;;;;5042135;28;20108;-62
2022/09/17 13:13:23;;;;;;;2.53;2.42;;;43.70;99.90;;;;;;5030756;28;20037;-62
2022/09/17 13:16:02;;;;;;;2.22;2.13;;;44.50;99.90;;;;;;5021548;28;20212;-62
2022/09/17 13:18:54;;;;;;;1.95;1.95;;;43.50;99.90;;;;;;5028073;28;20044;-62
2022/09/17 13:21:31;;;;;;;2.33;2.15;;;43.40;99.90;;;;;;5031619;28;20053;-62
2022/09/17 13:23:57;;;;;;;1.90;1.90;;;43.00;99.90;;;;;;5030497;28;20040;-61
2022/09/17 13:26:35;;;;;;;1.98;1.85;;;43.80;99.90;;;;;;5031433;28;20507;-63